sensor_id;sensor_type;location;lat;lon;timestamp;pressure;altitude;pressure_sealevel;temperature;humidity
32197;BME280;18697;42.770;23.400;2023-08-24T00:00:41;95676.31;;;25.76;62.54
32197;BME280;18697;42.770;23.400;2023-08-24T00:03:08;95682.00;;;25.68;62.87
32197;BME280;18697;42.770;23.400;2023-08-24T00:05:34;95676.81;;;25.59;62.90
32197;BME280;18697;42.770;23.400;2023-08-24T00:08:03;95665.22;;;25.49;63.04
32197;BME280;18697;42.770;23.400;2023-08-24T00:10:29;95660.66;;;25.46;63.58
32197;BME280;18697;42.770;23.400;2023-08-24T00:12:54;95660.50;;;25.52;62.59
32197;BME280;18697;42.770;23.400;2023-08-24T00:15:19;95662.03;;;25.61;62.37
32197;BME280;18697;42.770;23.400;2023-08-24T00:17:45;95669.41;;;25.56;62.59
32197;BME280;18697;42.770;23.400;2023-08-24T00:20:10;95671.66;;;25.50;61.89
32197;BME280;18697;42.770;23.400;2023-08-24T00:22:37;95667.06;;;25.39;62.54
32197;BME280;18697;42.770;23.400;2023-08-24T00:25:03;95657.97;;;25.41;61.88
32197;BME280;18697;42.770;23.400;2023-08-24T00:27:30;95657.22;;;25.40;61.78
32197;BME280;18697;42.770;23.400;2023-08-24T00:29:55;95661.75;;;25.36;61.70
32197;BME280;18697;42.770;23.400;2023-08-24T00:32:22;95672.19;;;25.41;61.28
32197;BME280;18697;42.770;23.400;2023-08-24T00:34:47;95673.72;;;25.42;60.86
32197;BME280;18697;42.770;23.400;2023-08-24T00:37:13;95667.28;;;25.41;61.06
32197;BME280;18697;42.770;23.400;2023-08-24T00:39:38;95656.44;;;25.32;59.87
32197;BME280;18697;42.770;23.400;2023-08-24T00:42:03;95662.00;;;25.02;60.54
32197;BME280;18697;42.770;23.400;2023-08-24T00:44:29;95662.75;;;25.02;61.08
32197;BME280;18697;42.770;23.400;2023-08-24T00:46:54;95662.97;;;25.04;61.77
32197;BME280;18697;42.770;23.400;2023-08-24T00:49:21;95662.28;;;25.19;61.32
32197;BME280;18697;42.770;23.400;2023-08-24T00:51:46;95665.50;;;25.23;60.83
32197;BME280;18697;42.770;23.400;2023-08-24T00:54:12;95663.44;;;25.24;60.96
32197;BME280;18697;42.770;23.400;2023-08-24T00:56:37;95666.44;;;25.26;60.59
32197;BME280;18697;42.770;23.400;2023-08-24T00:59:03;95670.81;;;25.27;60.68
32197;BME280;18697;42.770;23.400;2023-08-24T01:01:28;95674.00;;;25.15;61.30
32197;BME280;18697;42.770;23.400;2023-08-24T01:03:53;95674.16;;;25.10;61.54
32197;BME280;18697;42.770;23.400;2023-08-24T01:06:19;95659.78;;;25.15;61.08
32197;BME280;18697;42.770;23.400;2023-08-24T01:08:44;95666.44;;;25.18;61.09
32197;BME280;18697;42.770;23.400;2023-08-24T01:11:19;95662.66;;;25.23;60.83
32197;BME280;18697;42.770;23.400;2023-08-24T01:13:50;95667.91;;;25.11;61.13
32197;BME280;18697;42.770;23.400;2023-08-24T01:16:25;95661.22;;;25.01;61.36
32197;BME280;18697;42.770;23.400;2023-08-24T01:18:56;95667.84;;;24.96;61.20
32197;BME280;18697;42.770;23.400;2023-08-24T01:21:23;95667.19;;;24.90;61.49
32197;BME280;18697;42.770;23.400;2023-08-24T01:23:56;95672.28;;;24.84;61.45
32197;BME280;18697;42.770;23.400;2023-08-24T01:26:23;95676.94;;;24.74;61.83
32197;BME280;18697;42.770;23.400;2023-08-24T01:28:49;95671.53;;;24.83;61.38
32197;BME280;18697;42.770;23.400;2023-08-24T01:31:15;95674.72;;;24.80;61.32
32197;BME280;18697;42.770;23.400;2023-08-24T01:33:41;95671.66;;;24.78;61.44
32197;BME280;18697;42.770;23.400;2023-08-24T01:36:08;95668.88;;;24.57;62.05
32197;BME280;18697;42.770;23.400;2023-08-24T01:38:35;95674.31;;;24.06;64.07
32197;BME280;18697;42.770;23.400;2023-08-24T01:41:14;95677.75;;;23.91;64.90
32197;BME280;18697;42.770;23.400;2023-08-24T01:43:45;95679.78;;;24.04;64.26
32197;BME280;18697;42.770;23.400;2023-08-24T01:46:14;95679.09;;;24.11;64.18
32197;BME280;18697;42.770;23.400;2023-08-24T01:48:40;95673.13;;;24.22;64.07
32197;BME280;18697;42.770;23.400;2023-08-24T01:51:07;95674.06;;;24.38;63.35
32197;BME280;18697;42.770;23.400;2023-08-24T01:53:35;95671.84;;;24.44;63.19
32197;BME280;18697;42.770;23.400;2023-08-24T01:56:01;95668.16;;;24.36;63.20
32197;BME280;18697;42.770;23.400;2023-08-24T01:58:27;95677.25;;;24.34;63.44
32197;BME280;18697;42.770;23.400;2023-08-24T02:00:52;95676.34;;;24.39;63.57
32197;BME280;18697;42.770;23.400;2023-08-24T02:03:18;95687.78;;;24.54;62.82
32197;BME280;18697;42.770;23.400;2023-08-24T02:05:43;95679.88;;;24.61;62.38
32197;BME280;18697;42.770;23.400;2023-08-24T02:08:08;95683.88;;;24.65;62.82
32197;BME280;18697;42.770;23.400;2023-08-24T02:10:34;95677.72;;;24.74;62.35
32197;BME280;18697;42.770;23.400;2023-08-24T02:12:59;95679.03;;;24.73;61.94
32197;BME280;18697;42.770;23.400;2023-08-24T02:15:24;95676.03;;;24.79;61.85
32197;BME280;18697;42.770;23.400;2023-08-24T02:17:50;95688.72;;;24.78;61.78
32197;BME280;18697;42.770;23.400;2023-08-24T02:20:15;95688.91;;;24.80;61.35
32197;BME280;18697;42.770;23.400;2023-08-24T02:22:41;95671.00;;;24.64;62.29
32197;BME280;18697;42.770;23.400;2023-08-24T02:25:06;95672.06;;;24.53;62.25
32197;BME280;18697;42.770;23.400;2023-08-24T02:27:32;95673.22;;;24.30;63.42
32197;BME280;18697;42.770;23.400;2023-08-24T02:29:58;95660.00;;;24.32;62.74
32197;BME280;18697;42.770;23.400;2023-08-24T02:32:23;95670.59;;;24.32;63.26
32197;BME280;18697;42.770;23.400;2023-08-24T02:34:49;95670.03;;;24.33;63.03
32197;BME280;18697;42.770;23.400;2023-08-24T02:37:14;95672.25;;;24.27;63.68
32197;BME280;18697;42.770;23.400;2023-08-24T02:39:40;95667.00;;;24.31;63.35
32197;BME280;18697;42.770;23.400;2023-08-24T02:42:05;95682.28;;;24.28;63.51
32197;BME280;18697;42.770;23.400;2023-08-24T02:44:31;95687.75;;;24.26;63.12
32197;BME280;18697;42.770;23.400;2023-08-24T02:46:56;95688.91;;;24.10;63.23
32197;BME280;18697;42.770;23.400;2023-08-24T02:49:22;95684.00;;;24.10;62.94
32197;BME280;18697;42.770;23.400;2023-08-24T02:51:47;95682.97;;;24.21;62.41
32197;BME280;18697;42.770;23.400;2023-08-24T02:54:13;95676.72;;;24.22;62.17
32197;BME280;18697;42.770;23.400;2023-08-24T02:56:38;95677.84;;;24.19;62.01
32197;BME280;18697;42.770;23.400;2023-08-24T02:59:03;95682.19;;;24.20;62.31
32197;BME280;18697;42.770;23.400;2023-08-24T03:01:29;95676.72;;;24.22;62.15
32197;BME280;18697;42.770;23.400;2023-08-24T03:03:55;95683.47;;;24.33;61.43
32197;BME280;18697;42.770;23.400;2023-08-24T03:06:20;95690.53;;;24.39;61.61
32197;BME280;18697;42.770;23.400;2023-08-24T03:08:45;95689.97;;;24.41;61.44
32197;BME280;18697;42.770;23.400;2023-08-24T03:11:11;95696.81;;;24.45;61.22
32197;BME280;18697;42.770;23.400;2023-08-24T03:13:37;95709.50;;;24.44;61.08
32197;BME280;18697;42.770;23.400;2023-08-24T03:16:06;95701.59;;;24.50;60.64
32197;BME280;18697;42.770;23.400;2023-08-24T03:18:32;95695.38;;;24.31;61.14
32197;BME280;18697;42.770;23.400;2023-08-24T03:20:58;95675.50;;;24.31;61.14
32197;BME280;18697;42.770;23.400;2023-08-24T03:23:24;95687.75;;;24.26;61.27
32197;BME280;18697;42.770;23.400;2023-08-24T03:25:49;95690.47;;;24.32;61.27
32197;BME280;18697;42.770;23.400;2023-08-24T03:28:15;95684.69;;;24.24;61.48
32197;BME280;18697;42.770;23.400;2023-08-24T03:30:46;95699.78;;;24.19;61.72
32197;BME280;18697;42.770;23.400;2023-08-24T03:33:13;95698.88;;;24.24;61.56
32197;BME280;18697;42.770;23.400;2023-08-24T03:35:39;95701.59;;;24.30;61.75
32197;BME280;18697;42.770;23.400;2023-08-24T03:38:04;95702.38;;;24.30;61.98
32197;BME280;18697;42.770;23.400;2023-08-24T03:40:30;95709.56;;;24.31;61.75
32197;BME280;18697;42.770;23.400;2023-08-24T03:42:55;95703.13;;;24.31;61.96
32197;BME280;18697;42.770;23.400;2023-08-24T03:45:21;95703.13;;;24.31;61.93
32197;BME280;18697;42.770;23.400;2023-08-24T03:47:47;95701.72;;;24.24;62.47
32197;BME280;18697;42.770;23.400;2023-08-24T03:50:13;95705.41;;;24.32;62.20
32197;BME280;18697;42.770;23.400;2023-08-24T03:52:38;95704.38;;;24.43;61.33
32197;BME280;18697;42.770;23.400;2023-08-24T03:55:05;95705.47;;;24.40;61.50
32197;BME280;18697;42.770;23.400;2023-08-24T03:57:31;95703.13;;;24.31;61.83
32197;BME280;18697;42.770;23.400;2023-08-24T03:59:57;95701.47;;;24.35;61.79
32197;BME280;18697;42.770;23.400;2023-08-24T04:02:22;95702.47;;;24.04;62.39
32197;BME280;18697;42.770;23.400;2023-08-24T04:04:48;95714.16;;;24.00;62.79
32197;BME280;18697;42.770;23.400;2023-08-24T04:07:14;95710.00;;;24.01;62.32
32197;BME280;18697;42.770;23.400;2023-08-24T04:09:40;95715.69;;;24.01;62.34
32197;BME280;18697;42.770;23.400;2023-08-24T04:12:05;95720.59;;;24.01;62.02
32197;BME280;18697;42.770;23.400;2023-08-24T04:14:31;95722.19;;;24.09;61.75
32197;BME280;18697;42.770;23.400;2023-08-24T04:16:56;95724.19;;;24.01;61.80
32197;BME280;18697;42.770;23.400;2023-08-24T04:19:21;95736.16;;;24.07;61.58
32197;BME280;18697;42.770;23.400;2023-08-24T04:21:47;95729.22;;;23.95;61.50
32197;BME280;18697;42.770;23.400;2023-08-24T04:24:12;95728.47;;;23.95;61.93
32197;BME280;18697;42.770;23.400;2023-08-24T04:26:38;95715.28;;;23.63;62.84
32197;BME280;18697;42.770;23.400;2023-08-24T04:29:03;95730.69;;;22.62;67.00
32197;BME280;18697;42.770;23.400;2023-08-24T04:31:28;95735.03;;;22.76;66.56
32197;BME280;18697;42.770;23.400;2023-08-24T04:33:54;95738.34;;;22.93;66.13
32197;BME280;18697;42.770;23.400;2023-08-24T04:36:19;95731.06;;;22.98;66.21
32197;BME280;18697;42.770;23.400;2023-08-24T04:38:44;95730.81;;;23.09;65.42
32197;BME280;18697;42.770;23.400;2023-08-24T04:41:10;95732.13;;;23.21;65.16
32197;BME280;18697;42.770;23.400;2023-08-24T04:43:37;95728.38;;;23.40;64.38
32197;BME280;18697;42.770;23.400;2023-08-24T04:46:03;95728.63;;;23.55;63.85
32197;BME280;18697;42.770;23.400;2023-08-24T04:48:28;95731.00;;;23.51;64.21
32197;BME280;18697;42.770;23.400;2023-08-24T04:51:01;95730.78;;;23.62;64.03
32197;BME280;18697;42.770;23.400;2023-08-24T04:53:27;95724.22;;;23.67;63.95
32197;BME280;18697;42.770;23.400;2023-08-24T04:55:53;95732.31;;;23.63;64.16
32197;BME280;18697;42.770;23.400;2023-08-24T04:58:18;95741.88;;;23.73;63.91
32197;BME280;18697;42.770;23.400;2023-08-24T05:00:44;95740.47;;;23.67;63.88
32197;BME280;18697;42.770;23.400;2023-08-24T05:03:10;95748.84;;;23.72;64.21
32197;BME280;18697;42.770;23.400;2023-08-24T05:05:36;95745.47;;;23.74;63.93
32197;BME280;18697;42.770;23.400;2023-08-24T05:08:03;95745.69;;;23.76;63.96
32197;BME280;18697;42.770;23.400;2023-08-24T05:10:32;95739.59;;;23.92;63.10
32197;BME280;18697;42.770;23.400;2023-08-24T05:12:58;95746.00;;;24.06;62.85
32197;BME280;18697;42.770;23.400;2023-08-24T05:15:24;95756.31;;;24.17;62.38
32197;BME280;18697;42.770;23.400;2023-08-24T05:17:49;95759.56;;;24.21;62.52
32197;BME280;18697;42.770;23.400;2023-08-24T05:20:16;95768.44;;;24.17;62.30
32197;BME280;18697;42.770;23.400;2023-08-24T05:22:41;95759.91;;;24.17;62.81
32197;BME280;18697;42.770;23.400;2023-08-24T05:25:07;95761.31;;;24.24;62.83
32197;BME280;18697;42.770;23.400;2023-08-24T05:27:32;95760.66;;;24.31;62.38
32197;BME280;18697;42.770;23.400;2023-08-24T05:29:58;95762.47;;;24.42;62.00
32197;BME280;18697;42.770;23.400;2023-08-24T05:32:24;95753.59;;;24.45;61.84
32197;BME280;18697;42.770;23.400;2023-08-24T05:34:49;95744.53;;;24.47;61.97
32197;BME280;18697;42.770;23.400;2023-08-24T05:37:15;95755.13;;;24.46;61.26
32197;BME280;18697;42.770;23.400;2023-08-24T05:39:41;95760.03;;;24.46;62.02
32197;BME280;18697;42.770;23.400;2023-08-24T05:42:08;95763.44;;;24.44;62.29
32197;BME280;18697;42.770;23.400;2023-08-24T05:44:33;95755.91;;;24.54;61.28
32197;BME280;18697;42.770;23.400;2023-08-24T05:46:58;95753.56;;;24.66;61.52
32197;BME280;18697;42.770;23.400;2023-08-24T05:49:24;95758.53;;;24.73;62.71
32197;BME280;18697;42.770;23.400;2023-08-24T05:51:50;95753.63;;;24.11;65.39
32197;BME280;18697;42.770;23.400;2023-08-24T05:54:16;95762.22;;;24.19;64.75
32197;BME280;18697;42.770;23.400;2023-08-24T05:56:45;95768.50;;;24.25;64.08
32197;BME280;18697;42.770;23.400;2023-08-24T05:59:11;95760.47;;;24.16;66.89
32197;BME280;18697;42.770;23.400;2023-08-24T06:01:36;95744.94;;;23.62;69.34
32197;BME280;18697;42.770;23.400;2023-08-24T06:04:06;95759.59;;;23.00;71.49
32197;BME280;18697;42.770;23.400;2023-08-24T06:06:32;95753.47;;;23.22;71.92
32197;BME280;18697;42.770;23.400;2023-08-24T06:08:58;95763.06;;;23.19;73.14
32197;BME280;18697;42.770;23.400;2023-08-24T06:11:23;95763.22;;;22.55;73.96
32197;BME280;18697;42.770;23.400;2023-08-24T06:13:49;95764.97;;;22.58;77.46
32197;BME280;18697;42.770;23.400;2023-08-24T06:16:14;95759.97;;;22.65;76.83
32197;BME280;18697;42.770;23.400;2023-08-24T06:18:40;95768.88;;;22.55;75.49
32197;BME280;18697;42.770;23.400;2023-08-24T06:21:05;95765.72;;;22.59;76.42
32197;BME280;18697;42.770;23.400;2023-08-24T06:23:30;95765.41;;;22.62;77.76
32197;BME280;18697;42.770;23.400;2023-08-24T06:25:56;95764.75;;;22.70;74.73
32197;BME280;18697;42.770;23.400;2023-08-24T06:28:21;95758.63;;;22.98;70.72
32197;BME280;18697;42.770;23.400;2023-08-24T06:30:47;95768.72;;;23.46;71.41
32197;BME280;18697;42.770;23.400;2023-08-24T06:33:13;95767.28;;;24.00;69.77
32197;BME280;18697;42.770;23.400;2023-08-24T06:35:39;95762.69;;;24.10;68.24
32197;BME280;18697;42.770;23.400;2023-08-24T06:38:05;95770.66;;;24.53;68.50
32197;BME280;18697;42.770;23.400;2023-08-24T06:40:30;95761.72;;;24.70;65.58
32197;BME280;18697;42.770;23.400;2023-08-24T06:42:57;95771.63;;;24.97;65.30
32197;BME280;18697;42.770;23.400;2023-08-24T06:45:22;95764.09;;;25.36;64.21
32197;BME280;18697;42.770;23.400;2023-08-24T06:47:48;95767.00;;;25.51;63.81
32197;BME280;18697;42.770;23.400;2023-08-24T06:50:14;95763.72;;;25.68;63.83
32197;BME280;18697;42.770;23.400;2023-08-24T06:52:40;95759.56;;;25.76;63.92
32197;BME280;18697;42.770;23.400;2023-08-24T06:55:06;95762.31;;;26.05;62.06
32197;BME280;18697;42.770;23.400;2023-08-24T06:57:31;95756.47;;;26.26;63.03
32197;BME280;18697;42.770;23.400;2023-08-24T06:59:57;95765.47;;;26.52;61.78
32197;BME280;18697;42.770;23.400;2023-08-24T07:02:22;95759.38;;;26.79;60.35
32197;BME280;18697;42.770;23.400;2023-08-24T07:04:48;95755.75;;;26.94;59.47
32197;BME280;18697;42.770;23.400;2023-08-24T07:07:14;95761.47;;;27.09;59.30
32197;BME280;18697;42.770;23.400;2023-08-24T07:09:41;95758.06;;;27.10;58.39
32197;BME280;18697;42.770;23.400;2023-08-24T07:12:06;95755.41;;;26.51;59.08
32197;BME280;18697;42.770;23.400;2023-08-24T07:14:35;95753.50;;;26.39;60.78
32197;BME280;18697;42.770;23.400;2023-08-24T07:17:01;95752.38;;;26.65;59.36
32197;BME280;18697;42.770;23.400;2023-08-24T07:19:26;95748.56;;;26.85;59.19
32197;BME280;18697;42.770;23.400;2023-08-24T07:21:52;95745.72;;;27.00;58.47
32197;BME280;18697;42.770;23.400;2023-08-24T07:24:17;95750.41;;;27.36;58.46
32197;BME280;18697;42.770;23.400;2023-08-24T07:26:46;95742.72;;;27.61;57.24
32197;BME280;18697;42.770;23.400;2023-08-24T07:29:12;95747.22;;;27.79;56.06
32197;BME280;18697;42.770;23.400;2023-08-24T07:31:37;95745.00;;;27.55;56.26
32197;BME280;18697;42.770;23.400;2023-08-24T07:34:03;95741.13;;;27.83;56.51
32197;BME280;18697;42.770;23.400;2023-08-24T07:36:29;95740.16;;;28.21;55.66
32197;BME280;18697;42.770;23.400;2023-08-24T07:38:55;95749.03;;;28.32;53.11
32197;BME280;18697;42.770;23.400;2023-08-24T07:41:20;95736.72;;;28.55;53.46
32197;BME280;18697;42.770;23.400;2023-08-24T07:43:46;95741.50;;;28.77;54.06
32197;BME280;18697;42.770;23.400;2023-08-24T07:46:12;95741.56;;;28.94;53.31
32197;BME280;18697;42.770;23.400;2023-08-24T07:48:37;95740.56;;;29.17;52.98
32197;BME280;18697;42.770;23.400;2023-08-24T07:51:02;95736.63;;;29.29;53.38
32197;BME280;18697;42.770;23.400;2023-08-24T07:53:28;95733.44;;;29.25;52.13
32197;BME280;18697;42.770;23.400;2023-08-24T07:55:54;95734.56;;;29.47;51.84
32197;BME280;18697;42.770;23.400;2023-08-24T07:58:23;95734.56;;;29.47;51.65
32197;BME280;18697;42.770;23.400;2023-08-24T08:00:49;95733.09;;;29.73;53.07
32197;BME280;18697;42.770;23.400;2023-08-24T08:03:16;95733.22;;;29.65;49.59
32197;BME280;18697;42.770;23.400;2023-08-24T08:05:41;95726.84;;;29.84;50.73
32197;BME280;18697;42.770;23.400;2023-08-24T08:08:07;95729.19;;;29.51;51.84
32197;BME280;18697;42.770;23.400;2023-08-24T08:10:32;95727.25;;;29.54;49.93
32197;BME280;18697;42.770;23.400;2023-08-24T08:12:57;95732.94;;;29.71;51.35
32197;BME280;18697;42.770;23.400;2023-08-24T08:15:23;95728.84;;;29.91;51.64
32197;BME280;18697;42.770;23.400;2023-08-24T08:17:48;95731.28;;;30.12;49.48
32197;BME280;18697;42.770;23.400;2023-08-24T08:20:14;95726.41;;;30.05;48.82
32197;BME280;18697;42.770;23.400;2023-08-24T08:22:40;95724.97;;;30.14;49.79
32197;BME280;18697;42.770;23.400;2023-08-24T08:25:06;95731.59;;;30.16;47.87
32197;BME280;18697;42.770;23.400;2023-08-24T08:27:32;95724.78;;;30.38;49.51
32197;BME280;18697;42.770;23.400;2023-08-24T08:29:58;95726.22;;;30.57;48.74
32197;BME280;18697;42.770;23.400;2023-08-24T08:32:24;95714.75;;;30.57;47.87
32197;BME280;18697;42.770;23.400;2023-08-24T08:34:55;95719.06;;;30.48;48.68
32197;BME280;18697;42.770;23.400;2023-08-24T08:37:22;95712.59;;;30.48;50.20
32197;BME280;18697;42.770;23.400;2023-08-24T08:39:47;95712.31;;;30.44;47.91
32197;BME280;18697;42.770;23.400;2023-08-24T08:42:16;95706.59;;;30.17;48.23
32197;BME280;18697;42.770;23.400;2023-08-24T08:44:46;95706.81;;;30.01;48.57
32197;BME280;18697;42.770;23.400;2023-08-24T08:47:13;95704.41;;;30.34;49.31
32197;BME280;18697;42.770;23.400;2023-08-24T08:49:39;95699.88;;;30.31;47.44
32197;BME280;18697;42.770;23.400;2023-08-24T08:52:05;95693.16;;;30.56;47.61
32197;BME280;18697;42.770;23.400;2023-08-24T08:54:31;95695.66;;;30.69;45.60
32197;BME280;18697;42.770;23.400;2023-08-24T08:56:58;95685.91;;;30.91;45.98
32197;BME280;18697;42.770;23.400;2023-08-24T08:59:24;95693.91;;;30.93;43.22
32197;BME280;18697;42.770;23.400;2023-08-24T09:01:55;95680.97;;;31.21;45.37
32197;BME280;18697;42.770;23.400;2023-08-24T09:04:21;95680.41;;;31.42;43.45
32197;BME280;18697;42.770;23.400;2023-08-24T09:06:47;95682.22;;;31.56;43.11
32197;BME280;18697;42.770;23.400;2023-08-24T09:09:13;95671.19;;;31.72;44.96
32197;BME280;18697;42.770;23.400;2023-08-24T09:11:40;95668.91;;;31.90;44.19
32197;BME280;18697;42.770;23.400;2023-08-24T09:14:07;95668.47;;;31.84;44.05
32197;BME280;18697;42.770;23.400;2023-08-24T09:16:33;95656.38;;;31.56;43.35
32197;BME280;18697;42.770;23.400;2023-08-24T09:18:58;95644.59;;;31.33;43.82
32197;BME280;18697;42.770;23.400;2023-08-24T09:21:24;95653.34;;;31.54;44.69
32197;BME280;18697;42.770;23.400;2023-08-24T09:23:54;95643.53;;;31.67;44.65
32197;BME280;18697;42.770;23.400;2023-08-24T09:26:30;95650.47;;;31.64;44.59
32197;BME280;18697;42.770;23.400;2023-08-24T09:28:56;95649.59;;;31.52;43.76
32197;BME280;18697;42.770;23.400;2023-08-24T09:31:23;95645.81;;;31.59;43.24
32197;BME280;18697;42.770;23.400;2023-08-24T09:33:49;95624.19;;;31.77;46.14
32197;BME280;18697;42.770;23.400;2023-08-24T09:36:14;95627.72;;;32.07;43.64
32197;BME280;18697;42.770;23.400;2023-08-24T09:38:49;95624.13;;;31.96;41.82
32197;BME280;18697;42.770;23.400;2023-08-24T09:41:14;95624.13;;;31.96;43.66
32197;BME280;18697;42.770;23.400;2023-08-24T09:43:40;95625.09;;;32.20;42.47
32197;BME280;18697;42.770;23.400;2023-08-24T09:46:05;95621.47;;;32.29;43.36
32197;BME280;18697;42.770;23.400;2023-08-24T09:48:33;95631.44;;;32.28;41.79
32197;BME280;18697;42.770;23.400;2023-08-24T09:51:02;95622.41;;;32.53;42.08
32197;BME280;18697;42.770;23.400;2023-08-24T09:53:33;95608.50;;;32.71;42.68
32197;BME280;18697;42.770;23.400;2023-08-24T09:55:59;95610.59;;;32.80;42.71
32197;BME280;18697;42.770;23.400;2023-08-24T09:58:26;95601.50;;;32.84;41.52
32197;BME280;18697;42.770;23.400;2023-08-24T10:00:52;95600.13;;;32.85;41.61
32197;BME280;18697;42.770;23.400;2023-08-24T10:03:20;95612.66;;;32.68;41.36
32197;BME280;18697;42.770;23.400;2023-08-24T10:05:56;95605.06;;;32.42;42.44
32197;BME280;18697;42.770;23.400;2023-08-24T10:08:27;95608.63;;;32.21;42.36
32197;BME280;18697;42.770;23.400;2023-08-24T10:10:55;95605.31;;;31.74;42.71
32197;BME280;18697;42.770;23.400;2023-08-24T10:13:29;95597.75;;;31.59;43.81
32197;BME280;18697;42.770;23.400;2023-08-24T10:15:57;95597.28;;;31.63;44.64
32197;BME280;18697;42.770;23.400;2023-08-24T10:18:25;95595.03;;;31.61;44.87
32197;BME280;18697;42.770;23.400;2023-08-24T10:20:52;95595.94;;;31.54;44.71
32197;BME280;18697;42.770;23.400;2023-08-24T10:23:19;95604.41;;;31.52;44.72
32197;BME280;18697;42.770;23.400;2023-08-24T10:25:46;95605.34;;;31.45;44.07
32197;BME280;18697;42.770;23.400;2023-08-24T10:28:13;95608.50;;;31.40;45.09
32197;BME280;18697;42.770;23.400;2023-08-24T10:30:39;95601.56;;;31.33;45.27
32197;BME280;18697;42.770;23.400;2023-08-24T10:33:06;95599.03;;;31.18;44.68
32197;BME280;18697;42.770;23.400;2023-08-24T10:35:32;95600.06;;;31.13;45.27
32197;BME280;18697;42.770;23.400;2023-08-24T10:37:58;95603.84;;;31.05;44.78
32197;BME280;18697;42.770;23.400;2023-08-24T10:40:32;95602.94;;;31.03;45.16
32197;BME280;18697;42.770;23.400;2023-08-24T10:42:57;95596.88;;;30.89;45.08
32197;BME280;18697;42.770;23.400;2023-08-24T10:45:24;95604.56;;;30.87;45.77
32197;BME280;18697;42.770;23.400;2023-08-24T10:47:52;95621.03;;;30.86;47.36
32197;BME280;18697;42.770;23.400;2023-08-24T10:50:19;95618.88;;;30.77;45.54
32197;BME280;18697;42.770;23.400;2023-08-24T10:52:45;95621.13;;;30.59;44.00
32197;BME280;18697;42.770;23.400;2023-08-24T10:55:26;95614.94;;;30.63;44.57
32197;BME280;18697;42.770;23.400;2023-08-24T10:57:57;95606.19;;;30.70;45.51
32197;BME280;18697;42.770;23.400;2023-08-24T11:00:26;95599.28;;;30.73;44.91
32197;BME280;18697;42.770;23.400;2023-08-24T11:02:52;95596.84;;;30.70;45.51
32197;BME280;18697;42.770;23.400;2023-08-24T11:05:18;95597.91;;;30.75;44.97
32197;BME280;18697;42.770;23.400;2023-08-24T11:07:52;95583.88;;;30.69;45.07
32197;BME280;18697;42.770;23.400;2023-08-24T11:10:18;95577.25;;;30.76;45.61
32197;BME280;18697;42.770;23.400;2023-08-24T11:15:37;95577.38;;;30.59;44.11
32197;BME280;18697;42.770;23.400;2023-08-24T11:18:26;95590.44;;;30.43;43.78
32197;BME280;18697;42.770;23.400;2023-08-24T11:20:55;95580.53;;;30.07;45.74
32197;BME280;18697;42.770;23.400;2023-08-24T11:23:23;95588.88;;;29.59;49.24
32197;BME280;18697;42.770;23.400;2023-08-24T11:25:51;95572.69;;;29.27;50.39
32197;BME280;18697;42.770;23.400;2023-08-24T11:28:20;95578.59;;;29.11;50.75
32197;BME280;18697;42.770;23.400;2023-08-24T11:30:47;95580.19;;;29.05;52.04
32197;BME280;18697;42.770;23.400;2023-08-24T11:33:12;95575.59;;;28.92;52.57
32197;BME280;18697;42.770;23.400;2023-08-24T11:35:43;95577.63;;;28.82;53.18
32197;BME280;18697;42.770;23.400;2023-08-24T11:38:09;95568.16;;;28.55;51.23
32197;BME280;18697;42.770;23.400;2023-08-24T11:40:35;95565.97;;;28.45;51.33
32197;BME280;18697;42.770;23.400;2023-08-24T11:43:01;95571.09;;;28.47;51.66
32197;BME280;18697;42.770;23.400;2023-08-24T11:45:31;95565.88;;;28.36;49.52
32197;BME280;18697;42.770;23.400;2023-08-24T11:47:59;95558.97;;;28.39;48.53
32197;BME280;18697;42.770;23.400;2023-08-24T11:50:25;95560.66;;;28.42;48.66
32197;BME280;18697;42.770;23.400;2023-08-24T11:52:52;95552.34;;;28.36;46.65
32197;BME280;18697;42.770;23.400;2023-08-24T11:55:18;95560.66;;;28.42;46.96
32197;BME280;18697;42.770;23.400;2023-08-24T11:57:44;95550.81;;;28.35;46.89
32197;BME280;18697;42.770;23.400;2023-08-24T12:00:09;95541.66;;;28.37;47.82
32197;BME280;18697;42.770;23.400;2023-08-24T12:02:40;95538.56;;;28.42;47.62
32197;BME280;18697;42.770;23.400;2023-08-24T12:05:07;95529.00;;;28.48;48.04
32197;BME280;18697;42.770;23.400;2023-08-24T12:07:33;95524.88;;;28.58;49.12
32197;BME280;18697;42.770;23.400;2023-08-24T12:10:02;95516.22;;;28.66;48.63
32197;BME280;18697;42.770;23.400;2023-08-24T12:12:27;95519.09;;;28.83;48.58
32197;BME280;18697;42.770;23.400;2023-08-24T12:14:55;95517.56;;;28.99;48.19
32197;BME280;18697;42.770;23.400;2023-08-24T12:17:21;95513.84;;;29.06;51.02
32197;BME280;18697;42.770;23.400;2023-08-24T12:20:00;95519.13;;;29.10;52.80
32197;BME280;18697;42.770;23.400;2023-08-24T12:22:26;95520.09;;;28.95;55.00
32197;BME280;18697;42.770;23.400;2023-08-24T12:24:52;95515.34;;;29.07;52.69
32197;BME280;18697;42.770;23.400;2023-08-24T12:27:25;95522.81;;;29.20;54.28
32197;BME280;18697;42.770;23.400;2023-08-24T12:29:53;95517.34;;;29.15;54.67
32197;BME280;18697;42.770;23.400;2023-08-24T12:32:20;95525.38;;;28.99;50.92
32197;BME280;18697;42.770;23.400;2023-08-24T12:34:48;95534.38;;;28.78;48.64
32197;BME280;18697;42.770;23.400;2023-08-24T12:37:13;95540.47;;;28.82;51.31
32197;BME280;18697;42.770;23.400;2023-08-24T12:39:39;95541.38;;;28.85;51.35
32197;BME280;18697;42.770;23.400;2023-08-24T12:42:05;95539.03;;;28.91;51.84
32197;BME280;18697;42.770;23.400;2023-08-24T12:44:31;95541.00;;;28.98;53.77
32197;BME280;18697;42.770;23.400;2023-08-24T12:46:58;95543.88;;;28.98;52.74
32197;BME280;18697;42.770;23.400;2023-08-24T12:49:23;95543.59;;;29.03;53.67